Time;durP1;ratioP1;P1;durP2;ratioP2;P2;SDS_P1;SDS_P2;PMS_P1;PMS_P2;Temp;Humidity;BMP_temperature;BMP_pressure;BME280_temperature;BME280_humidity;BME280_pressure;Samples;Min_cycle;Max_cycle;Signal;HPM_P1;HPM_P2
2021/09/02 00:00:43;;;;;;;13.15;9.93;;;;;;;12.43;88.07;101638.38;5070748;28;20136;-79
2021/09/02 00:03:08;;;;;;;13.32;8.95;;;;;;;12.35;88.99;101640.97;5069993;28;20076;-78
2021/09/02 00:05:34;;;;;;;16.67;11.20;;;;;;;12.32;89.76;101642.75;5068579;28;20040;-82
2021/09/02 00:07:59;;;;;;;14.13;9.82;;;;;;;12.33;90.10;101647.16;5068018;28;20052;-81
2021/09/02 00:10:24;;;;;;;10.07;7.07;;;;;;;12.35;89.54;101650.69;5063504;28;20032;-81
2021/09/02 00:12:50;;;;;;;7.28;5.20;;;;;;;12.35;88.81;101653.34;5017063;28;20036;-81
2021/09/02 00:15:16;;;;;;;7.50;4.80;;;;;;;12.32;88.48;101655.97;5068995;28;20154;-81
2021/09/02 00:17:41;;;;;;;7.85;5.38;;;;;;;12.26;88.31;101655.06;5049206;28;20036;-81
2021/09/02 00:20:07;;;;;;;8.35;5.70;;;;;;;12.28;88.31;101655.06;5062047;28;20028;-81
2021/09/02 00:22:32;;;;;;;7.57;5.47;;;;;;;12.23;88.16;101652.38;5068694;28;20735;-81
2021/09/02 00:24:58;;;;;;;14.75;9.48;;;;;;;12.26;88.60;101657.72;5066113;28;20048;-82
2021/09/02 00:27:23;;;;;;;10.75;8.18;;;;;;;12.33;89.00;101663.03;5069514;28;20032;-81
2021/09/02 00:29:48;;;;;;;9.70;7.07;;;;;;;12.33;88.16;101658.63;5066563;28;20036;-81
2021/09/02 00:32:15;;;;;;;8.65;6.78;;;;;;;12.29;88.26;101662.16;5050444;28;20037;-81
2021/09/02 00:34:40;;;;;;;12.30;7.40;;;;;;;12.24;88.15;101659.47;5048596;28;20078;-80
2021/09/02 00:37:06;;;;;;;9.00;6.30;;;;;;;12.20;88.13;101657.66;5066790;28;20041;-81
2021/09/02 00:39:31;;;;;;;8.90;6.75;;;;;;;12.19;87.97;101655.91;5066796;28;20131;-81
2021/09/02 00:41:57;;;;;;;9.80;6.07;;;;;;;12.14;87.66;101656.78;5065821;28;20032;-81
2021/09/02 00:44:32;;;;;;;7.75;6.05;;;;;;;12.14;87.33;101649.72;5066891;28;20105;-80
2021/09/02 00:46:59;;;;;;;7.10;5.22;;;;;;;12.08;88.03;101660.28;5065563;28;20029;-81
2021/09/02 00:49:24;;;;;;;8.32;6.10;;;;;;;11.99;87.98;101660.19;5066806;28;20483;-80
2021/09/02 00:51:49;;;;;;;11.15;6.95;;;;;;;11.94;88.40;101652.22;5066217;28;20052;-80
2021/09/02 00:54:15;;;;;;;10.63;7.15;;;;;;;11.97;88.20;101659.31;5067814;28;20039;-81
2021/09/02 00:56:40;;;;;;;9.10;6.07;;;;;;;12.00;88.58;101654.94;5065288;28;20045;-82
2021/09/02 00:59:05;;;;;;;16.60;9.68;;;;;;;12.02;88.30;101652.28;5068202;28;20036;-81
2021/09/02 01:01:30;;;;;;;11.15;7.75;;;;;;;12.05;88.53;101658.50;5065101;28;20052;-82
2021/09/02 01:03:56;;;;;;;11.55;7.00;;;;;;;12.01;88.83;101658.47;5069126;28;20037;-82
2021/09/02 01:06:21;;;;;;;12.93;8.70;;;;;;;12.02;88.96;101650.50;5064782;28;20044;-82
2021/09/02 01:08:48;;;;;;;25.30;11.20;;;;;;;12.00;88.52;101654.94;5068126;28;20089;-82
2021/09/02 01:11:14;;;;;;;14.05;10.05;;;;;;;11.95;89.06;101648.72;5066402;28;20090;-81
2021/09/02 01:13:39;;;;;;;12.93;8.98;;;;;;;12.01;89.64;101654.03;5067161;28;20457;-82
2021/09/02 01:16:04;;;;;;;10.80;7.57;;;;;;;12.02;88.68;101653.16;5066612;28;20036;-82
2021/09/02 01:18:30;;;;;;;12.80;9.00;;;;;;;12.03;88.78;101657.59;5067227;28;20028;-82
2021/09/02 01:20:55;;;;;;;15.57;9.18;;;;;;;12.00;88.26;101654.06;5049711;28;20040;-82
2021/09/02 01:23:22;;;;;;;11.85;8.15;;;;;;;12.02;88.55;101654.94;5065672;28;20046;-82
2021/09/02 01:25:48;;;;;;;19.05;13.05;;;;;;;12.04;89.09;101653.19;5067697;28;20028;-82
2021/09/02 01:28:14;;;;;;;11.07;8.05;;;;;;;12.02;88.67;101663.75;5064964;28;20123;-82
2021/09/02 01:30:41;;;;;;;10.98;7.32;;;;;;;11.96;88.26;101658.41;5068314;28;20126;-82
2021/09/02 01:33:08;;;;;;;14.30;9.07;;;;;;;11.90;87.88;101662.81;5064514;28;20476;-82
2021/09/02 01:35:34;;;;;;;11.48;7.28;;;;;;;11.87;88.53;101661.03;5049882;28;20075;-82
2021/09/02 01:38:03;;;;;;;10.75;7.50;;;;;;;11.81;88.23;101664.44;5064100;28;20037;-82
2021/09/02 01:40:34;;;;;;;12.13;7.30;;;;;;;11.78;88.24;101664.44;5060613;28;20060;-81
2021/09/02 01:43:02;;;;;;;9.13;7.13;;;;;;;11.78;88.73;101667.09;5056744;28;20499;-81
2021/09/02 01:45:28;;;;;;;12.15;7.45;;;;;;;11.76;88.24;101665.31;5067431;28;20032;-81
2021/09/02 01:48:01;;;;;;;9.35;6.80;;;;;;;11.67;88.69;101668.78;5064308;28;20060;-82
2021/09/02 01:50:29;;;;;;;10.65;7.40;;;;;;;11.67;88.93;101666.13;5061498;28;20067;-81
2021/09/02 01:52:57;;;;;;;12.52;8.55;;;;;;;11.61;88.86;101666.09;5066880;28;20037;-81
2021/09/02 01:55:23;;;;;;;20.60;8.30;;;;;;;11.59;89.35;101662.53;5063754;28;20037;-81
2021/09/02 01:57:50;;;;;;;8.98;5.40;;;;;;;11.60;89.39;101659.00;5061765;28;20040;-81
2021/09/02 02:00:16;;;;;;;7.05;4.85;;;;;;;11.61;89.25;101660.81;5067087;28;20032;-81
2021/09/02 02:02:42;;;;;;;10.32;6.47;;;;;;;11.61;89.45;101655.53;5029908;28;20040;-82
2021/09/02 02:05:09;;;;;;;17.88;10.90;;;;;;;11.65;89.56;101652.00;5039725;28;20052;-82
2021/09/02 02:07:36;;;;;;;16.02;10.77;;;;;;;11.71;89.82;101652.06;5063587;28;20050;-79
2021/09/02 02:10:04;;;;;;;11.40;8.00;;;;;;;11.72;89.67;101653.81;5061780;28;20028;-80
2021/09/02 02:12:30;;;;;;;11.30;8.15;;;;;;;11.69;89.97;101650.28;5064608;28;20032;-79
2021/09/02 02:14:55;;;;;;;12.93;8.00;;;;;;;11.71;89.73;101651.16;5061533;28;20445;-80
2021/09/02 02:17:20;;;;;;;10.00;7.18;;;;;;;11.68;89.86;101644.09;5063865;28;20029;-80
2021/09/02 02:19:45;;;;;;;17.88;11.27;;;;;;;11.67;90.25;101644.97;5062241;28;20108;-79
2021/09/02 02:22:11;;;;;;;26.42;14.43;;;;;;;11.73;90.98;101649.41;5030218;28;20029;-80
2021/09/02 02:24:36;;;;;;;23.63;14.55;;;;;;;11.78;91.00;101648.56;5062851;28;20410;-80
2021/09/02 02:27:02;;;;;;;11.07;8.43;;;;;;;11.82;91.31;101645.09;5061920;28;20043;-79
2021/09/02 02:29:27;;;;;;;12.25;9.18;;;;;;;11.85;91.41;101650.38;5063651;28;20115;-80
2021/09/02 02:31:52;;;;;;;12.73;8.18;;;;;;;11.84;90.96;101640.69;5061465;28;20047;-80
2021/09/02 02:34:18;;;;;;;14.32;8.85;;;;;;;11.81;90.37;101640.66;5064084;28;20049;-80
2021/09/02 02:36:43;;;;;;;15.65;9.82;;;;;;;11.78;89.85;101638.00;5060454;28;20044;-80
2021/09/02 02:39:09;;;;;;;9.57;7.22;;;;;;;11.67;89.79;101638.81;5063857;28;20036;-81
2021/09/02 02:41:35;;;;;;;13.32;8.68;;;;;;;11.61;90.36;101639.66;5026036;28;20044;-81
2021/09/02 02:44:00;;;;;;;14.82;10.02;;;;;;;11.58;90.67;101634.31;5063408;28;20033;-82
2021/09/02 02:46:26;;;;;;;12.52;9.27;;;;;;;11.59;90.87;101644.03;5066084;28;20037;-82
2021/09/02 02:48:51;;;;;;;16.10;11.25;;;;;;;11.65;91.30;101640.53;5064291;28;20466;-82
2021/09/02 02:51:16;;;;;;;14.05;10.63;;;;;;;11.60;92.48;101636.09;5064687;28;20064;-82
2021/09/02 02:53:42;;;;;;;16.83;11.63;;;;;;;11.62;93.23;101634.34;5047557;28;20044;-81
2021/09/02 02:56:07;;;;;;;17.60;12.07;;;;;;;11.66;93.14;101637.00;5064737;28;20096;-82
2021/09/02 02:58:33;;;;;;;14.85;10.00;;;;;;;11.70;93.36;101638.81;5066820;28;20475;-83
2021/09/02 03:00:58;;;;;;;17.15;11.00;;;;;;;11.69;92.57;101637.06;5064447;28;20044;-82
2021/09/02 03:03:23;;;;;;;19.52;12.98;;;;;;;11.74;93.30;101641.50;5050253;28;20036;-81
2021/09/02 03:05:49;;;;;;;27.73;16.45;;;;;;;11.76;93.65;101638.84;5067722;28;20032;-81
2021/09/02 03:08:14;;;;;;;19.05;12.40;;;;;;;11.77;93.71;101640.66;5067803;28;20037;-81
2021/09/02 03:10:39;;;;;;;25.13;14.75;;;;;;;11.77;93.48;101641.53;5069986;28;20041;-81
2021/09/02 03:13:05;;;;;;;22.35;12.25;;;;;;;11.77;93.34;101638.88;5049718;28;20041;-81
2021/09/02 03:15:30;;;;;;;14.27;10.88;;;;;;;11.77;92.89;101633.59;5051570;28;20051;-82
2021/09/02 03:17:57;;;;;;;14.48;10.38;;;;;;;11.81;93.32;101638.00;5033856;28;20123;-81
2021/09/02 03:20:22;;;;;;;23.40;15.35;;;;;;;11.81;93.32;101638.00;5050414;28;20712;-82
2021/09/02 03:22:48;;;;;;;14.70;11.10;;;;;;;11.83;92.73;101636.25;5068987;28;20047;-81
2021/09/02 03:25:13;;;;;;;20.00;12.57;;;;;;;11.87;92.79;101631.94;5049492;28;20047;-82
2021/09/02 03:27:38;;;;;;;18.00;11.18;;;;;;;11.85;92.56;101639.81;5069399;28;20040;-82
2021/09/02 03:30:05;;;;;;;17.60;12.32;;;;;;;11.82;92.72;101646.84;5049112;28;20099;-82
2021/09/02 03:32:30;;;;;;;16.35;11.70;;;;;;;11.86;93.12;101648.66;5069994;28;20044;-82
2021/09/02 03:34:56;;;;;;;14.55;10.85;;;;;;;11.93;93.04;101645.19;5066154;28;20040;-81
2021/09/02 03:37:21;;;;;;;18.20;10.82;;;;;;;11.98;93.09;101661.97;5028354;28;20040;-81
2021/09/02 03:39:46;;;;;;;20.27;12.80;;;;;;;12.00;92.57;101656.69;5034637;28;20036;-81
2021/09/02 03:42:12;;;;;;;18.10;12.20;;;;;;;12.02;92.83;101658.44;5049295;28;20081;-81
2021/09/02 03:44:37;;;;;;;17.35;12.23;;;;;;;12.06;92.47;101667.31;5065440;28;20075;-81
2021/09/02 03:47:03;;;;;;;13.48;9.73;;;;;;;12.09;92.38;101655.84;5037063;28;20068;-81
2021/09/02 03:49:28;;;;;;;18.58;12.10;;;;;;;12.11;92.29;101657.63;5038202;28;20041;-82
2021/09/02 03:51:53;;;;;;;18.63;12.75;;;;;;;12.16;92.12;101652.38;5065120;28;20468;-80
2021/09/02 03:54:19;;;;;;;13.35;10.68;;;;;;;12.18;91.33;101656.81;5045754;28;20037;-81
2021/09/02 03:56:44;;;;;;;17.83;11.73;;;;;;;12.17;91.68;101657.66;5052466;28;20031;-81
2021/09/02 03:59:09;;;;;;;23.90;13.00;;;;;;;12.17;91.28;101649.72;5064716;28;20037;-80
2021/09/02 04:01:34;;;;;;;48.67;13.48;;;;;;;12.14;91.47;101649.72;5068885;28;20036;-81
2021/09/02 04:04:00;;;;;;;23.10;13.45;;;;;;;12.11;91.38;101641.75;5046596;28;20087;-80
2021/09/02 04:06:25;;;;;;;22.65;14.45;;;;;;;12.03;91.90;101648.78;5067033;28;20028;-81
2021/09/02 04:08:51;;;;;;;38.85;13.02;;;;;;;12.08;91.89;101647.03;5065584;28;20455;-81
2021/09/02 04:11:16;;;;;;;16.98;10.70;;;;;;;12.08;91.34;101657.63;5067158;28;20039;-80
2021/09/02 04:13:42;;;;;;;25.95;10.23;;;;;;;12.03;91.32;101649.66;5047513;28;20043;-80
2021/09/02 04:16:07;;;;;;;55.08;13.90;;;;;;;12.01;90.80;101656.69;5048102;28;20024;-79
2021/09/02 04:18:33;;;;;;;27.08;12.07;;;;;;;11.99;90.88;101653.16;5046424;28;20411;-81
2021/09/02 04:20:58;;;;;;;50.92;13.98;;;;;;;11.97;91.10;101654.91;5048401;28;20089;-81
2021/09/02 04:23:24;;;;;;;31.95;10.55;;;;;;;11.91;90.89;101659.28;5064240;28;20108;-82
2021/09/02 04:25:50;;;;;;;38.28;12.20;;;;;;;11.85;90.98;101658.31;5068540;28;20060;-81
2021/09/02 04:28:15;;;;;;;51.75;11.45;;;;;;;11.87;91.20;101663.66;5053693;28;20072;-81
2021/09/02 04:30:41;;;;;;;45.85;11.00;;;;;;;11.81;91.15;101661.81;5064881;28;20036;-81
2021/09/02 04:33:06;;;;;;;57.30;15.15;;;;;;;11.75;91.71;101666.19;5054252;28;20037;-80
2021/09/02 04:35:31;;;;;;;22.20;10.57;;;;;;;11.79;91.69;101663.59;5051869;28;20045;-80
2021/09/02 04:37:57;;;;;;;19.83;10.52;;;;;;;11.84;91.73;101668.88;5053788;28;20033;-81
2021/09/02 04:40:22;;;;;;;22.85;11.55;;;;;;;11.87;91.58;101676.91;5060613;28;20068;-81
2021/09/02 04:42:47;;;;;;;30.15;13.70;;;;;;;11.94;91.15;101672.50;5065279;28;20036;-80
2021/09/02 04:45:13;;;;;;;19.52;11.75;;;;;;;11.94;91.09;101675.16;5059089;28;20029;-81
2021/09/02 04:47:39;;;;;;;16.67;10.63;;;;;;;11.96;91.39;101676.94;5063069;28;20072;-81
2021/09/02 04:50:06;;;;;;;22.25;16.17;;;;;;;11.98;91.13;101683.13;5059014;28;20029;-80
2021/09/02 04:52:31;;;;;;;17.67;12.32;;;;;;;11.97;90.55;101680.47;5055271;28;20399;-80
2021/09/02 04:54:56;;;;;;;13.85;10.82;;;;;;;11.99;90.80;101684.00;5063096;28;20029;-79
2021/09/02 04:57:22;;;;;;;13.98;11.35;;;;;;;11.99;90.51;101687.53;5066650;28;20585;-80
2021/09/02 04:59:47;;;;;;;17.23;12.90;;;;;;;12.00;90.18;101697.28;5061170;28;20036;-81
2021/09/02 05:02:13;;;;;;;22.73;15.48;;;;;;;11.95;90.11;101687.53;5063376;28;20063;-79
2021/09/02 05:04:39;;;;;;;18.75;14.85;;;;;;;11.92;90.68;101677.81;5043356;28;20032;-81
2021/09/02 05:07:04;;;;;;;19.75;14.88;;;;;;;11.97;91.17;101670.78;5048777;28;20115;-80
2021/09/02 05:09:30;;;;;;;17.88;13.20;;;;;;;12.00;91.52;101677.88;5063516;28;20059;-80
2021/09/02 05:11:55;;;;;;;19.35;15.02;;;;;;;12.05;91.85;101669.06;5062111;28;20021;-81
2021/09/02 05:14:20;;;;;;;23.02;16.85;;;;;;;12.06;92.17;101675.25;5065890;28;20075;-81
2021/09/02 05:16:46;;;;;;;22.35;15.90;;;;;;;12.10;92.26;101678.78;5065291;28;21038;-81
2021/09/02 05:19:11;;;;;;;21.52;15.07;;;;;;;12.15;92.37;101679.69;5060828;28;20506;-81
2021/09/02 05:21:36;;;;;;;19.02;15.95;;;;;;;12.18;92.41;101685.91;5064977;28;20036;-81
2021/09/02 05:24:02;;;;;;;24.90;16.23;;;;;;;12.22;92.57;101685.03;5064324;28;20040;-80
2021/09/02 05:26:27;;;;;;;23.90;16.77;;;;;;;12.26;92.20;101681.53;5065245;28;20036;-81
2021/09/02 05:28:52;;;;;;;29.40;18.48;;;;;;;12.36;92.28;101684.22;5065391;28;20041;-81
2021/09/02 05:31:18;;;;;;;28.70;18.80;;;;;;;12.50;91.96;101687.84;5065408;28;20093;-81
2021/09/02 05:33:43;;;;;;;19.88;15.00;;;;;;;12.64;92.18;101691.41;5064227;28;20065;-81
2021/09/02 05:36:09;;;;;;;30.15;18.38;;;;;;;12.83;91.41;101686.16;5065846;28;20044;-80
2021/09/02 05:38:35;;;;;;;22.15;14.05;;;;;;;13.06;90.79;101689.75;5064440;28;20037;-81
2021/09/02 05:41:00;;;;;;;20.48;15.95;;;;;;;13.19;90.27;101689.78;5065609;28;20033;-80
2021/09/02 05:43:26;;;;;;;22.27;16.90;;;;;;;13.20;90.06;101696.84;5064892;28;20112;-81
2021/09/02 05:45:52;;;;;;;27.08;17.27;;;;;;;13.36;89.99;101702.22;5064386;28;20033;-81
2021/09/02 05:48:17;;;;;;;24.85;17.55;;;;;;;13.45;89.47;101701.34;5065158;28;20506;-81
2021/09/02 05:50:43;;;;;;;20.35;15.40;;;;;;;13.55;88.89;101703.13;5045601;28;20500;-81
2021/09/02 05:53:09;;;;;;;31.98;17.60;;;;;;;13.59;88.87;101701.34;5065794;28;20645;-81
2021/09/02 05:55:36;;;;;;;27.77;17.02;;;;;;;13.65;88.93;101705.75;5063103;28;20067;-81
2021/09/02 05:58:01;;;;;;;25.95;16.90;;;;;;;13.70;88.74;101704.91;5066356;28;20036;-80
2021/09/02 06:00:27;;;;;;;24.50;18.20;;;;;;;13.87;88.14;101704.88;5063127;28;20051;-81
2021/09/02 06:02:52;;;;;;;23.33;17.65;;;;;;;13.96;88.25;101703.97;5048218;28;20043;-81
2021/09/02 06:05:17;;;;;;;26.92;18.25;;;;;;;14.01;87.95;101705.72;5045798;28;20044;-81
2021/09/02 06:07:42;;;;;;;28.13;19.77;;;;;;;14.00;87.10;101703.97;5064638;28;20036;-79
2021/09/02 06:10:09;;;;;;;30.52;20.63;;;;;;;13.97;87.53;101709.28;5061846;28;20045;-79
2021/09/02 06:12:34;;;;;;;32.00;20.30;;;;;;;13.91;87.65;101701.34;5053470;28;20112;-79
2021/09/02 06:15:00;;;;;;;28.50;20.70;;;;;;;13.88;87.61;101709.28;5030018;28;20107;-78
2021/09/02 06:17:25;;;;;;;27.25;20.52;;;;;;;13.80;87.89;101708.41;5047472;28;20386;-79
2021/09/02 06:19:50;;;;;;;24.50;17.83;;;;;;;13.84;87.88;101718.16;5052081;28;20040;-79
2021/09/02 06:22:16;;;;;;;26.13;20.23;;;;;;;13.89;87.75;101723.47;5044807;28;20036;-78
2021/09/02 06:24:41;;;;;;;25.33;18.88;;;;;;;13.98;87.73;101719.00;5032289;28;20033;-79
2021/09/02 06:27:06;;;;;;;29.70;21.60;;;;;;;14.14;87.62;101727.81;5040247;28;20036;-79
2021/09/02 06:29:31;;;;;;;26.45;19.17;;;;;;;14.26;86.82;101724.28;5046415;28;20050;-78
2021/09/02 06:31:57;;;;;;;23.27;18.40;;;;;;;14.22;87.05;101730.47;5060869;28;20048;-79
2021/09/02 06:34:22;;;;;;;24.60;17.85;;;;;;;14.28;86.81;101741.09;5044292;28;20037;-79
2021/09/02 06:36:47;;;;;;;22.50;18.00;;;;;;;14.33;86.34;101735.75;5062779;28;20157;-79
2021/09/02 06:39:13;;;;;;;23.77;19.58;;;;;;;14.35;87.02;101734.88;5061934;28;20071;-79
2021/09/02 06:41:38;;;;;;;24.83;19.48;;;;;;;14.47;86.36;101728.66;5065707;28;20037;-79
2021/09/02 06:44:04;;;;;;;20.98;17.63;;;;;;;14.60;86.29;101732.19;5066420;28;20071;-79
2021/09/02 06:46:29;;;;;;;26.60;20.73;;;;;;;14.59;85.70;101727.75;5047367;28;20126;-79
2021/09/02 06:48:55;;;;;;;25.73;19.35;;;;;;;14.55;85.93;101732.19;5067348;28;20134;-79
2021/09/02 06:51:21;;;;;;;36.00;22.70;;;;;;;14.56;86.08;101736.59;5064821;28;20036;-79
2021/09/02 06:53:46;;;;;;;24.92;19.88;;;;;;;14.60;85.27;101737.50;5067865;28;20479;-79
2021/09/02 06:56:11;;;;;;;28.13;19.98;;;;;;;14.66;85.67;101740.13;5063993;28;20037;-79
2021/09/02 06:58:37;;;;;;;23.42;19.33;;;;;;;14.75;85.42;101742.75;5064513;28;20237;-79
2021/09/02 07:01:02;;;;;;;24.58;19.17;;;;;;;14.83;85.74;101740.94;5063377;28;20025;-79
2021/09/02 07:03:27;;;;;;;27.27;20.55;;;;;;;14.97;84.28;101740.00;5063889;28;20040;-79
2021/09/02 07:05:53;;;;;;;27.20;19.90;;;;;;;15.06;84.92;101742.59;5065831;28;20123;-79
2021/09/02 07:08:18;;;;;;;22.95;19.33;;;;;;;15.29;84.37;101740.69;5066414;28;20032;-79
2021/09/02 07:10:43;;;;;;;23.08;18.90;;;;;;;15.39;83.11;101745.97;5065720;28;20111;-79
2021/09/02 07:13:09;;;;;;;25.13;19.65;;;;;;;15.52;83.26;101747.63;5064636;28;20041;-79
2021/09/02 07:15:34;;;;;;;24.10;19.50;;;;;;;15.51;82.83;101751.16;5066302;28;20040;-79
2021/09/02 07:17:59;;;;;;;22.20;19.65;;;;;;;15.54;82.58;101756.50;5064436;28;20037;-79
2021/09/02 07:20:25;;;;;;;23.67;18.23;;;;;;;15.68;82.53;101754.59;5066686;28;20087;-79
2021/09/02 07:22:50;;;;;;;28.65;20.77;;;;;;;15.71;83.11;101751.06;5063624;28;20116;-79
2021/09/02 07:25:16;;;;;;;25.20;20.00;;;;;;;15.83;82.73;101756.31;5063979;28;20628;-79
2021/09/02 07:27:41;;;;;;;26.40;19.85;;;;;;;15.91;82.28;101762.44;5050440;28;20033;-79
2021/09/02 07:30:07;;;;;;;24.75;20.00;;;;;;;15.88;82.59;101761.59;5066315;28;20438;-79
2021/09/02 07:32:32;;;;;;;22.67;19.52;;;;;;;15.85;82.98;101758.94;5046630;28;20036;-79
2021/09/02 07:34:58;;;;;;;26.40;21.20;;;;;;;15.83;83.16;101760.75;5065085;28;20040;-78
2021/09/02 07:37:23;;;;;;;23.35;20.08;;;;;;;15.88;83.69;101756.28;5065040;28;20087;-79
2021/09/02 07:39:49;;;;;;;24.95;19.73;;;;;;;15.88;83.85;101759.81;5064834;28;20110;-80
2021/09/02 07:42:14;;;;;;;22.98;19.42;;;;;;;16.02;84.00;101767.66;5065907;28;20035;-79
2021/09/02 07:44:39;;;;;;;28.20;20.10;;;;;;;16.06;83.93;101771.16;5046078;28;20043;-79
2021/09/02 07:47:05;;;;;;;23.17;19.02;;;;;;;16.17;83.06;101774.66;5066186;28;20062;-79
2021/09/02 07:49:31;;;;;;;21.27;16.85;;;;;;;16.20;82.83;101774.59;5058524;28;20055;-79
2021/09/02 07:51:56;;;;;;;28.80;18.88;;;;;;;16.28;82.62;101777.19;5065831;28;20078;-79
2021/09/02 07:54:21;;;;;;;19.42;16.67;;;;;;;16.37;82.87;101777.09;5063407;28;20040;-78
2021/09/02 07:56:47;;;;;;;26.35;18.48;;;;;;;16.44;81.86;101778.81;5060796;28;20040;-79
2021/09/02 07:59:12;;;;;;;21.85;17.05;;;;;;;16.55;81.65;101776.00;5062789;28;21046;-79
2021/09/02 08:01:37;;;;;;;20.40;17.30;;;;;;;16.60;81.67;101775.06;5065500;28;20103;-79
2021/09/02 08:04:03;;;;;;;19.33;16.25;;;;;;;16.72;81.42;101771.38;5067330;28;20044;-79
2021/09/02 08:06:28;;;;;;;20.08;17.80;;;;;;;16.82;81.64;101766.84;5029035;28;20037;-79
2021/09/02 08:08:54;;;;;;;20.67;16.77;;;;;;;16.96;81.03;101770.22;5064265;28;20052;-78
2021/09/02 08:11:19;;;;;;;22.00;17.05;;;;;;;17.14;81.19;101770.91;5047437;28;20040;-79
2021/09/02 08:13:44;;;;;;;20.20;16.80;;;;;;;17.24;80.52;101769.88;5045435;28;20082;-79
2021/09/02 08:16:10;;;;;;;20.05;15.80;;;;;;;17.39;80.26;101769.63;5065850;28;20562;-79
2021/09/02 08:18:35;;;;;;;21.70;17.05;;;;;;;17.53;80.37;101769.44;5062649;28;20071;-80
2021/09/02 08:21:00;;;;;;;20.45;15.10;;;;;;;17.66;79.13;101770.13;5065902;28;20044;-79
2021/09/02 08:23:26;;;;;;;18.75;15.23;;;;;;;17.74;79.07;101769.09;5063096;28;20174;-79
2021/09/02 08:25:51;;;;;;;18.80;15.18;;;;;;;17.88;79.21;101766.22;5065097;28;20048;-79
2021/09/02 08:28:16;;;;;;;18.55;14.93;;;;;;;17.89;77.83;101772.44;5063649;28;20506;-79
2021/09/02 08:30:42;;;;;;;17.95;15.77;;;;;;;17.96;77.76;101769.63;5069038;28;20072;-79
2021/09/02 08:33:07;;;;;;;16.65;13.73;;;;;;;18.11;77.19;101778.31;5070188;28;20041;-79
2021/09/02 08:35:33;;;;;;;16.05;12.73;;;;;;;18.19;76.10;101763.03;5057903;28;20123;-79
2021/09/02 08:38:01;;;;;;;18.48;13.93;;;;;;;18.23;76.67;101772.72;5065785;28;20059;-79
2021/09/02 08:40:30;;;;;;;16.05;13.38;;;;;;;18.32;75.96;101767.22;5065654;28;20118;-79
2021/09/02 08:42:56;;;;;;;17.67;13.48;;;;;;;18.47;76.13;101775.84;5064232;28;20045;-80
2021/09/02 08:45:24;;;;;;;18.73;13.90;;;;;;;18.63;75.88;101777.34;5030303;28;20063;-79
2021/09/02 08:47:50;;;;;;;17.52;14.18;;;;;;;18.66;74.80;101771.94;5063250;28;20567;-79
2021/09/02 08:50:20;;;;;;;17.65;12.90;;;;;;;18.69;75.01;101771.00;5047749;28;20032;-80
2021/09/02 08:52:46;;;;;;;19.70;13.55;;;;;;;18.79;74.53;101768.13;5028663;28;20027;-79
2021/09/02 08:55:12;;;;;;;21.13;13.85;;;;;;;18.93;75.26;101764.28;5068504;28;20491;-79
2021/09/02 08:57:38;;;;;;;19.25;14.82;;;;;;;18.99;73.25;101774.84;5066033;28;20043;-80
2021/09/02 09:00:04;;;;;;;16.73;12.73;;;;;;;18.97;73.22;101766.00;5062612;28;20120;-79
2021/09/02 09:02:32;;;;;;;17.20;15.20;;;;;;;19.00;74.21;101761.44;5040280;28;20036;-80
2021/09/02 09:05:09;;;;;;;15.60;11.43;;;;;;;19.12;73.22;101765.63;5060041;28;20036;-80
2021/09/02 09:07:39;;;;;;;15.07;11.38;;;;;;;19.26;73.25;101771.56;5060878;28;20124;-79
2021/09/02 09:10:30;;;;;;;13.85;11.27;;;;;;;19.20;72.47;101770.81;5065528;28;20043;-79
2021/09/02 09:12:57;;;;;;;16.60;11.90;;;;;;;19.30;71.39;101775.03;5058163;28;20057;-79
2021/09/02 09:15:24;;;;;;;15.52;11.20;;;;;;;19.35;72.13;101761.56;5030915;28;20441;-79
2021/09/02 09:17:51;;;;;;;15.95;12.18;;;;;;;19.49;72.10;101767.47;5062156;28;20041;-79
2021/09/02 09:20:18;;;;;;;13.63;10.90;;;;;;;19.55;70.79;101764.66;5065655;28;20028;-80
2021/09/02 09:22:49;;;;;;;17.65;11.63;;;;;;;19.77;70.72;101775.75;5058406;28;20491;-79
2021/09/02 09:25:14;;;;;;;15.13;11.55;;;;;;;19.85;69.68;101778.25;5037094;28;20037;-79
2021/09/02 09:27:54;;;;;;;14.00;10.60;;;;;;;19.86;69.72;101769.31;5047679;28;20182;-79
2021/09/02 09:30:30;;;;;;;14.38;11.65;;;;;;;20.07;69.58;101774.13;5060818;28;20041;-79
2021/09/02 09:33:04;;;;;;;12.73;10.93;;;;;;;20.21;68.94;101773.75;5062755;28;20066;-79
2021/09/02 09:35:39;;;;;;;13.50;9.43;;;;;;;20.43;68.60;101778.53;5064835;28;20055;-80
2021/09/02 09:38:08;;;;;;;13.52;9.13;;;;;;;20.46;67.51;101773.97;5058733;28;20070;-80
2021/09/02 09:40:36;;;;;;;15.52;11.10;;;;;;;20.49;67.47;101770.31;5064409;28;20486;-80
2021/09/02 09:43:05;;;;;;;12.18;9.60;;;;;;;20.51;67.11;101763.09;5061819;28;20100;-80
2021/09/02 09:45:50;;;;;;;11.43;8.88;;;;;;;20.65;67.15;101765.44;5064824;28;20119;-79
2021/09/02 09:48:22;;;;;;;14.95;9.60;;;;;;;20.73;66.04;101763.41;5063327;28;20035;-79
2021/09/02 09:51:12;;;;;;;15.50;8.90;;;;;;;20.79;65.31;101755.19;5027301;28;20040;-80
2021/09/02 09:53:39;;;;;;;12.93;9.57;;;;;;;20.80;65.95;101754.25;5058437;28;20411;-79
2021/09/02 09:56:05;;;;;;;12.73;8.15;;;;;;;20.81;65.44;101753.34;5064219;28;20463;-80
2021/09/02 09:58:30;;;;;;;9.85;7.95;;;;;;;21.05;65.25;101748.16;5063393;28;20125;-80
2021/09/02 10:01:01;;;;;;;12.00;8.25;;;;;;;21.12;64.39;101755.97;5063103;28;20032;-79
2021/09/02 10:03:29;;;;;;;10.85;7.53;;;;;;;21.27;63.42;101754.59;5023392;28;20025;-80
2021/09/02 10:05:56;;;;;;;12.20;8.40;;;;;;;21.41;62.95;101755.09;5049436;28;20071;-79
2021/09/02 10:08:21;;;;;;;11.73;8.70;;;;;;;21.57;62.21;101750.09;5025011;28;20029;-80
2021/09/02 10:10:47;;;;;;;10.52;8.30;;;;;;;21.55;61.90;101753.78;5063700;28;20047;-79
2021/09/02 10:13:13;;;;;;;9.90;7.28;;;;;;;21.68;61.54;101757.81;5065850;28;20036;-79
2021/09/02 10:15:39;;;;;;;11.25;8.07;;;;;;;21.74;60.65;101760.28;5045618;28;20426;-80
2021/09/02 10:18:05;;;;;;;15.43;10.98;;;;;;;21.89;61.33;101759.78;5060350;28;20039;-80
2021/09/02 10:20:39;;;;;;;11.93;8.30;;;;;;;21.99;60.44;101754.09;5066201;28;20036;-80
2021/09/02 10:23:06;;;;;;;12.75;7.75;;;;;;;22.17;61.20;101752.59;5044308;28;20487;-80
2021/09/02 10:25:35;;;;;;;11.07;8.18;;;;;;;22.18;59.73;101762.41;5063218;28;20028;-80
2021/09/02 10:28:03;;;;;;;13.95;9.45;;;;;;;22.34;59.21;101752.00;5061853;28;20025;-80
2021/09/02 10:30:29;;;;;;;10.45;7.68;;;;;;;22.60;60.25;101757.31;5045819;28;20383;-80
2021/09/02 10:32:58;;;;;;;11.43;8.98;;;;;;;22.58;58.72;101750.22;5065170;28;20442;-81
2021/09/02 10:35:26;;;;;;;14.30;10.80;;;;;;;22.35;59.34;101761.81;5065639;28;20037;-80
2021/09/02 10:37:53;;;;;;;11.45;7.90;;;;;;;22.42;59.77;101766.06;5028875;28;20037;-80
2021/09/02 10:40:18;;;;;;;11.25;8.73;;;;;;;22.24;59.70;101754.13;5045891;28;20041;-79
2021/09/02 10:42:44;;;;;;;12.95;9.35;;;;;;;22.51;59.44;101755.84;5061085;28;20033;-80
2021/09/02 10:45:31;;;;;;;9.20;7.55;;;;;;;22.52;59.00;101754.91;5064096;28;20036;-80
2021/09/02 10:48:07;;;;;;;11.90;8.15;;;;;;;22.16;58.55;101751.69;5042028;28;20072;-79
2021/09/02 10:50:35;;;;;;;10.60;7.03;;;;;;;22.24;58.83;101749.66;5044115;28;20452;-80
2021/09/02 10:53:11;;;;;;;10.27;8.30;;;;;;;22.70;58.92;101747.97;5057692;28;20123;-80
2021/09/02 10:55:40;;;;;;;10.13;8.52;;;;;;;22.80;59.19;101751.19;5059067;28;20040;-80
2021/09/02 10:58:08;;;;;;;11.02;8.98;;;;;;;23.00;58.65;101739.69;5043283;28;20033;-80
2021/09/02 11:00:39;;;;;;;12.00;8.90;;;;;;;23.07;57.29;101754.66;5045368;28;20436;-80
2021/09/02 11:03:13;;;;;;;11.98;9.73;;;;;;;22.86;57.16;101752.78;5062283;28;20040;-80
2021/09/02 11:05:40;;;;;;;12.18;8.98;;;;;;;22.93;58.28;101732.78;5043540;28;20056;-80
2021/09/02 11:08:06;;;;;;;11.18;8.75;;;;;;;22.96;59.19;101743.41;5045020;28;20029;-80